sensor_id;sensor_type;location;lat;lon;timestamp;pressure;altitude;pressure_sealevel;temperature
56286;BMP180;42191;47.562;9.686;2023-03-01T00:01:28;97273.00;;;6.20
56286;BMP180;42191;47.562;9.686;2023-03-01T00:03:55;97276.00;;;6.20
56286;BMP180;42191;47.562;9.686;2023-03-01T00:06:21;97270.00;;;6.20
56286;BMP180;42191;47.562;9.686;2023-03-01T00:08:48;97263.00;;;6.20
56286;BMP180;42191;47.562;9.686;2023-03-01T00:11:20;97279.00;;;6.20
56286;BMP180;42191;47.562;9.686;2023-03-01T00:13:48;97267.00;;;6.20
56286;BMP180;42191;47.562;9.686;2023-03-01T00:16:21;97267.00;;;6.30
56286;BMP180;42191;47.562;9.686;2023-03-01T00:18:48;97270.00;;;6.20
56286;BMP180;42191;47.562;9.686;2023-03-01T00:21:14;97263.00;;;6.30
56286;BMP180;42191;47.562;9.686;2023-03-01T00:23:41;97262.00;;;6.30
56286;BMP180;42191;47.562;9.686;2023-03-01T00:26:10;97258.00;;;6.30
56286;BMP180;42191;47.562;9.686;2023-03-01T00:28:36;97264.00;;;6.30
56286;BMP180;42191;47.562;9.686;2023-03-01T00:33:30;97262.00;;;6.30
56286;BMP180;42191;47.562;9.686;2023-03-01T00:35:58;97263.00;;;6.30
56286;BMP180;42191;47.562;9.686;2023-03-01T00:38:24;97262.00;;;6.30
56286;BMP180;42191;47.562;9.686;2023-03-01T00:40:50;97254.00;;;6.30
56286;BMP180;42191;47.562;9.686;2023-03-01T00:43:17;97260.00;;;6.30
56286;BMP180;42191;47.562;9.686;2023-03-01T00:45:43;97252.00;;;6.30
56286;BMP180;42191;47.562;9.686;2023-03-01T00:48:09;97254.00;;;6.30
56286;BMP180;42191;47.562;9.686;2023-03-01T00:50:35;97254.00;;;6.30
56286;BMP180;42191;47.562;9.686;2023-03-01T00:53:01;97252.00;;;6.40
56286;BMP180;42191;47.562;9.686;2023-03-01T00:55:28;97238.00;;;6.40
56286;BMP180;42191;47.562;9.686;2023-03-01T00:57:54;97242.00;;;6.40
56286;BMP180;42191;47.562;9.686;2023-03-01T01:00:21;97241.00;;;6.40
56286;BMP180;42191;47.562;9.686;2023-03-01T01:02:47;97232.00;;;6.40
56286;BMP180;42191;47.562;9.686;2023-03-01T01:05:13;97235.00;;;6.40
56286;BMP180;42191;47.562;9.686;2023-03-01T01:07:39;97226.00;;;6.50
56286;BMP180;42191;47.562;9.686;2023-03-01T01:10:06;97226.00;;;6.50
56286;BMP180;42191;47.562;9.686;2023-03-01T01:12:33;97221.00;;;6.50
56286;BMP180;42191;47.562;9.686;2023-03-01T01:14:59;97223.00;;;6.50
56286;BMP180;42191;47.562;9.686;2023-03-01T01:17:25;97217.00;;;6.50
56286;BMP180;42191;47.562;9.686;2023-03-01T01:19:51;97217.00;;;6.50
56286;BMP180;42191;47.562;9.686;2023-03-01T01:22:17;97215.00;;;6.50
56286;BMP180;42191;47.562;9.686;2023-03-01T01:24:43;97194.00;;;6.50
56286;BMP180;42191;47.562;9.686;2023-03-01T01:27:09;97206.00;;;6.50
56286;BMP180;42191;47.562;9.686;2023-03-01T01:29:35;97202.00;;;6.50
56286;BMP180;42191;47.562;9.686;2023-03-01T01:32:01;97192.00;;;6.50
56286;BMP180;42191;47.562;9.686;2023-03-01T01:34:27;97196.00;;;6.50
56286;BMP180;42191;47.562;9.686;2023-03-01T01:36:54;97192.00;;;6.60
56286;BMP180;42191;47.562;9.686;2023-03-01T01:39:21;97191.00;;;6.60
56286;BMP180;42191;47.562;9.686;2023-03-01T01:41:48;97192.00;;;6.60
56286;BMP180;42191;47.562;9.686;2023-03-01T01:44:25;97190.00;;;6.60
56286;BMP180;42191;47.562;9.686;2023-03-01T01:47:05;97184.00;;;6.60
56286;BMP180;42191;47.562;9.686;2023-03-01T01:49:33;97185.00;;;6.60
56286;BMP180;42191;47.562;9.686;2023-03-01T01:52:07;97187.00;;;6.60
56286;BMP180;42191;47.562;9.686;2023-03-01T01:57:20;97181.00;;;6.60
56286;BMP180;42191;47.562;9.686;2023-03-01T01:59:53;97180.00;;;6.60
56286;BMP180;42191;47.562;9.686;2023-03-01T02:02:20;97185.00;;;6.60
56286;BMP180;42191;47.562;9.686;2023-03-01T02:04:48;97177.00;;;6.50
56286;BMP180;42191;47.562;9.686;2023-03-01T02:07:21;97162.00;;;6.50
56286;BMP180;42191;47.562;9.686;2023-03-01T02:09:50;97167.00;;;6.50
56286;BMP180;42191;47.562;9.686;2023-03-01T02:12:19;97163.00;;;6.50
56286;BMP180;42191;47.562;9.686;2023-03-01T02:14:46;97165.00;;;6.50
56286;BMP180;42191;47.562;9.686;2023-03-01T02:17:14;97163.00;;;6.50
56286;BMP180;42191;47.562;9.686;2023-03-01T02:22:50;97166.00;;;6.40
56286;BMP180;42191;47.562;9.686;2023-03-01T02:30:46;97151.00;;;6.40
56286;BMP180;42191;47.562;9.686;2023-03-01T02:33:34;97150.00;;;6.40
56286;BMP180;42191;47.562;9.686;2023-03-01T02:36:04;97158.00;;;6.40
56286;BMP180;42191;47.562;9.686;2023-03-01T02:38:32;97145.00;;;6.40
56286;BMP180;42191;47.562;9.686;2023-03-01T02:40:59;97156.00;;;6.40
56286;BMP180;42191;47.562;9.686;2023-03-01T02:43:29;97151.00;;;6.50
56286;BMP180;42191;47.562;9.686;2023-03-01T02:45:59;97145.00;;;6.40
56286;BMP180;42191;47.562;9.686;2023-03-01T02:48:27;97156.00;;;6.50
56286;BMP180;42191;47.562;9.686;2023-03-01T02:51:09;97143.00;;;6.50
56286;BMP180;42191;47.562;9.686;2023-03-01T02:53:59;97141.00;;;6.50
56286;BMP180;42191;47.562;9.686;2023-03-01T02:56:30;97144.00;;;6.50
56286;BMP180;42191;47.562;9.686;2023-03-01T02:58:57;97137.00;;;6.50
56286;BMP180;42191;47.562;9.686;2023-03-01T03:01:27;97131.00;;;6.50
56286;BMP180;42191;47.562;9.686;2023-03-01T03:04:07;97133.00;;;6.50
56286;BMP180;42191;47.562;9.686;2023-03-01T03:06:34;97131.00;;;6.50
56286;BMP180;42191;47.562;9.686;2023-03-01T03:09:00;97127.00;;;6.50
56286;BMP180;42191;47.562;9.686;2023-03-01T03:11:27;97136.00;;;6.50
56286;BMP180;42191;47.562;9.686;2023-03-01T03:13:53;97140.00;;;6.60
56286;BMP180;42191;47.562;9.686;2023-03-01T03:16:20;97133.00;;;6.60
56286;BMP180;42191;47.562;9.686;2023-03-01T03:18:46;97120.00;;;6.60
56286;BMP180;42191;47.562;9.686;2023-03-01T03:21:13;97126.00;;;6.60
56286;BMP180;42191;47.562;9.686;2023-03-01T03:23:39;97126.00;;;6.50
56286;BMP180;42191;47.562;9.686;2023-03-01T03:26:06;97124.00;;;6.60
56286;BMP180;42191;47.562;9.686;2023-03-01T03:28:33;97125.00;;;6.60
56286;BMP180;42191;47.562;9.686;2023-03-01T03:31:00;97139.00;;;6.60
56286;BMP180;42191;47.562;9.686;2023-03-01T03:33:30;97132.00;;;6.50
56286;BMP180;42191;47.562;9.686;2023-03-01T03:35:56;97129.00;;;6.50
56286;BMP180;42191;47.562;9.686;2023-03-01T03:38:23;97126.00;;;6.50
56286;BMP180;42191;47.562;9.686;2023-03-01T03:41:00;97130.00;;;6.50
56286;BMP180;42191;47.562;9.686;2023-03-01T03:43:29;97134.00;;;6.50
56286;BMP180;42191;47.562;9.686;2023-03-01T03:45:55;97135.00;;;6.50
56286;BMP180;42191;47.562;9.686;2023-03-01T03:48:23;97135.00;;;6.50
56286;BMP180;42191;47.562;9.686;2023-03-01T03:50:52;97117.00;;;6.50
56286;BMP180;42191;47.562;9.686;2023-03-01T03:53:19;97123.00;;;6.50
56286;BMP180;42191;47.562;9.686;2023-03-01T03:55:46;97118.00;;;6.50
56286;BMP180;42191;47.562;9.686;2023-03-01T03:58:15;97115.00;;;6.50
56286;BMP180;42191;47.562;9.686;2023-03-01T04:00:43;97118.00;;;6.50
56286;BMP180;42191;47.562;9.686;2023-03-01T04:03:11;97120.00;;;6.50
56286;BMP180;42191;47.562;9.686;2023-03-01T04:05:37;97107.00;;;6.50
56286;BMP180;42191;47.562;9.686;2023-03-01T04:08:04;97103.00;;;6.50
56286;BMP180;42191;47.562;9.686;2023-03-01T04:10:39;97106.00;;;6.50
56286;BMP180;42191;47.562;9.686;2023-03-01T04:13:07;97098.00;;;6.40
56286;BMP180;42191;47.562;9.686;2023-03-01T04:15:35;97092.00;;;6.40
56286;BMP180;42191;47.562;9.686;2023-03-01T04:18:01;97103.00;;;6.40
56286;BMP180;42191;47.562;9.686;2023-03-01T04:20:29;97107.00;;;6.40
56286;BMP180;42191;47.562;9.686;2023-03-01T04:23:03;97105.00;;;6.40
56286;BMP180;42191;47.562;9.686;2023-03-01T04:25:57;97107.00;;;6.40
56286;BMP180;42191;47.562;9.686;2023-03-01T04:28:32;97120.00;;;6.40
56286;BMP180;42191;47.562;9.686;2023-03-01T04:31:03;97114.00;;;6.40
56286;BMP180;42191;47.562;9.686;2023-03-01T04:33:42;97111.00;;;6.40
56286;BMP180;42191;47.562;9.686;2023-03-01T04:36:10;97117.00;;;6.40
56286;BMP180;42191;47.562;9.686;2023-03-01T04:38:37;97109.00;;;6.40
56286;BMP180;42191;47.562;9.686;2023-03-01T04:41:09;97110.00;;;6.40
56286;BMP180;42191;47.562;9.686;2023-03-01T04:43:35;97100.00;;;6.40
56286;BMP180;42191;47.562;9.686;2023-03-01T04:46:10;97105.00;;;6.40
56286;BMP180;42191;47.562;9.686;2023-03-01T04:48:38;97086.00;;;6.40
56286;BMP180;42191;47.562;9.686;2023-03-01T04:51:05;97102.00;;;6.40
56286;BMP180;42191;47.562;9.686;2023-03-01T04:53:32;97096.00;;;6.40
56286;BMP180;42191;47.562;9.686;2023-03-01T04:55:58;97102.00;;;6.40
56286;BMP180;42191;47.562;9.686;2023-03-01T04:58:26;97104.00;;;6.40
56286;BMP180;42191;47.562;9.686;2023-03-01T05:00:53;97103.00;;;6.40
56286;BMP180;42191;47.562;9.686;2023-03-01T05:03:20;97098.00;;;6.40
56286;BMP180;42191;47.562;9.686;2023-03-01T05:05:47;97093.00;;;6.40
56286;BMP180;42191;47.562;9.686;2023-03-01T05:08:14;97087.00;;;6.40
56286;BMP180;42191;47.562;9.686;2023-03-01T05:10:45;97089.00;;;6.40
56286;BMP180;42191;47.562;9.686;2023-03-01T05:13:12;97088.00;;;6.40
56286;BMP180;42191;47.562;9.686;2023-03-01T05:15:47;97082.00;;;6.40
56286;BMP180;42191;47.562;9.686;2023-03-01T05:18:14;97077.00;;;6.40
56286;BMP180;42191;47.562;9.686;2023-03-01T05:20:41;97077.00;;;6.40
56286;BMP180;42191;47.562;9.686;2023-03-01T05:23:07;97081.00;;;6.40
56286;BMP180;42191;47.562;9.686;2023-03-01T05:25:34;97077.00;;;6.40
56286;BMP180;42191;47.562;9.686;2023-03-01T05:28:02;97066.00;;;6.40
56286;BMP180;42191;47.562;9.686;2023-03-01T05:30:31;97066.00;;;6.40
56286;BMP180;42191;47.562;9.686;2023-03-01T05:32:58;97064.00;;;6.40
56286;BMP180;42191;47.562;9.686;2023-03-01T05:35:24;97062.00;;;6.40
56286;BMP180;42191;47.562;9.686;2023-03-01T05:37:51;97059.00;;;6.40
56286;BMP180;42191;47.562;9.686;2023-03-01T05:40:20;97065.00;;;6.40
56286;BMP180;42191;47.562;9.686;2023-03-01T05:42:49;97064.00;;;6.40
56286;BMP180;42191;47.562;9.686;2023-03-01T05:45:16;97065.00;;;6.40
56286;BMP180;42191;47.562;9.686;2023-03-01T05:47:44;97055.00;;;6.50
56286;BMP180;42191;47.562;9.686;2023-03-01T05:52:49;97052.00;;;6.50
56286;BMP180;42191;47.562;9.686;2023-03-01T05:55:17;97051.00;;;6.50
56286;BMP180;42191;47.562;9.686;2023-03-01T05:57:44;97058.00;;;6.50
56286;BMP180;42191;47.562;9.686;2023-03-01T06:00:11;97051.00;;;6.50
56286;BMP180;42191;47.562;9.686;2023-03-01T06:02:38;97066.00;;;6.50
56286;BMP180;42191;47.562;9.686;2023-03-01T06:05:06;97058.00;;;6.50
56286;BMP180;42191;47.562;9.686;2023-03-01T06:07:32;97063.00;;;6.50
56286;BMP180;42191;47.562;9.686;2023-03-01T06:09:58;97059.00;;;6.50
56286;BMP180;42191;47.562;9.686;2023-03-01T06:12:24;97064.00;;;6.50
56286;BMP180;42191;47.562;9.686;2023-03-01T06:14:50;97056.00;;;6.50
56286;BMP180;42191;47.562;9.686;2023-03-01T06:17:16;97057.00;;;6.50
56286;BMP180;42191;47.562;9.686;2023-03-01T06:19:49;97054.00;;;6.60
56286;BMP180;42191;47.562;9.686;2023-03-01T06:22:15;97055.00;;;6.60
56286;BMP180;42191;47.562;9.686;2023-03-01T06:24:41;97057.00;;;6.60
56286;BMP180;42191;47.562;9.686;2023-03-01T06:27:07;97055.00;;;6.60
56286;BMP180;42191;47.562;9.686;2023-03-01T06:29:34;97057.00;;;6.60
56286;BMP180;42191;47.562;9.686;2023-03-01T06:32:00;97045.00;;;6.60
56286;BMP180;42191;47.562;9.686;2023-03-01T06:34:26;97062.00;;;6.70
56286;BMP180;42191;47.562;9.686;2023-03-01T06:36:52;97062.00;;;6.70
56286;BMP180;42191;47.562;9.686;2023-03-01T06:39:18;97064.00;;;6.70
56286;BMP180;42191;47.562;9.686;2023-03-01T06:41:45;97060.00;;;6.70
56286;BMP180;42191;47.562;9.686;2023-03-01T06:44:11;97066.00;;;6.70
56286;BMP180;42191;47.562;9.686;2023-03-01T06:46:38;97062.00;;;6.70
56286;BMP180;42191;47.562;9.686;2023-03-01T06:49:04;97059.00;;;6.70
56286;BMP180;42191;47.562;9.686;2023-03-01T06:51:35;97066.00;;;6.70
56286;BMP180;42191;47.562;9.686;2023-03-01T06:54:05;97059.00;;;6.70
56286;BMP180;42191;47.562;9.686;2023-03-01T06:56:32;97061.00;;;6.80
56286;BMP180;42191;47.562;9.686;2023-03-01T06:58:59;97063.00;;;6.80
56286;BMP180;42191;47.562;9.686;2023-03-01T07:01:25;97067.00;;;6.80
56286;BMP180;42191;47.562;9.686;2023-03-01T07:03:51;97059.00;;;6.80
56286;BMP180;42191;47.562;9.686;2023-03-01T07:06:17;97061.00;;;6.90
56286;BMP180;42191;47.562;9.686;2023-03-01T07:08:43;97066.00;;;6.90
56286;BMP180;42191;47.562;9.686;2023-03-01T07:11:10;97063.00;;;6.90
56286;BMP180;42191;47.562;9.686;2023-03-01T07:13:36;97065.00;;;6.90
56286;BMP180;42191;47.562;9.686;2023-03-01T07:16:02;97065.00;;;6.90
56286;BMP180;42191;47.562;9.686;2023-03-01T07:18:28;97066.00;;;7.00
56286;BMP180;42191;47.562;9.686;2023-03-01T07:20:54;97052.00;;;7.00
56286;BMP180;42191;47.562;9.686;2023-03-01T07:23:20;97053.00;;;7.00
56286;BMP180;42191;47.562;9.686;2023-03-01T07:25:52;97060.00;;;7.00
56286;BMP180;42191;47.562;9.686;2023-03-01T07:28:19;97057.00;;;7.10
56286;BMP180;42191;47.562;9.686;2023-03-01T07:30:45;97057.00;;;7.10
56286;BMP180;42191;47.562;9.686;2023-03-01T07:33:11;97065.00;;;7.10
56286;BMP180;42191;47.562;9.686;2023-03-01T07:35:37;97056.00;;;7.10
56286;BMP180;42191;47.562;9.686;2023-03-01T07:38:03;97057.00;;;7.20
56286;BMP180;42191;47.562;9.686;2023-03-01T07:40:29;97056.00;;;7.20
56286;BMP180;42191;47.562;9.686;2023-03-01T07:42:59;97050.00;;;7.20
56286;BMP180;42191;47.562;9.686;2023-03-01T07:45:25;97053.00;;;7.20
56286;BMP180;42191;47.562;9.686;2023-03-01T07:47:52;97050.00;;;7.20
56286;BMP180;42191;47.562;9.686;2023-03-01T07:50:20;97042.00;;;7.20
56286;BMP180;42191;47.562;9.686;2023-03-01T07:52:47;97047.00;;;7.30
56286;BMP180;42191;47.562;9.686;2023-03-01T07:55:14;97048.00;;;7.30
56286;BMP180;42191;47.562;9.686;2023-03-01T07:57:41;97047.00;;;7.30
56286;BMP180;42191;47.562;9.686;2023-03-01T08:00:09;97046.00;;;7.30
56286;BMP180;42191;47.562;9.686;2023-03-01T08:02:35;97042.00;;;7.30
56286;BMP180;42191;47.562;9.686;2023-03-01T08:05:01;97056.00;;;7.30
56286;BMP180;42191;47.562;9.686;2023-03-01T08:07:28;97048.00;;;7.30
56286;BMP180;42191;47.562;9.686;2023-03-01T08:09:54;97043.00;;;7.30
56286;BMP180;42191;47.562;9.686;2023-03-01T08:12:20;97044.00;;;7.30
56286;BMP180;42191;47.562;9.686;2023-03-01T08:14:46;97034.00;;;7.30
56286;BMP180;42191;47.562;9.686;2023-03-01T08:17:14;97043.00;;;7.40
56286;BMP180;42191;47.562;9.686;2023-03-01T08:19:40;97030.00;;;7.40
56286;BMP180;42191;47.562;9.686;2023-03-01T08:22:06;97034.00;;;7.40
56286;BMP180;42191;47.562;9.686;2023-03-01T08:24:32;97039.00;;;7.50
56286;BMP180;42191;47.562;9.686;2023-03-01T08:26:58;97042.00;;;7.50
56286;BMP180;42191;47.562;9.686;2023-03-01T08:29:24;97046.00;;;7.50
56286;BMP180;42191;47.562;9.686;2023-03-01T08:31:51;97048.00;;;7.50
56286;BMP180;42191;47.562;9.686;2023-03-01T08:34:18;97044.00;;;7.50
56286;BMP180;42191;47.562;9.686;2023-03-01T08:36:45;97039.00;;;7.50
56286;BMP180;42191;47.562;9.686;2023-03-01T08:39:14;97037.00;;;7.60
56286;BMP180;42191;47.562;9.686;2023-03-01T08:41:41;97030.00;;;7.60
56286;BMP180;42191;47.562;9.686;2023-03-01T08:44:07;97025.00;;;7.60
56286;BMP180;42191;47.562;9.686;2023-03-01T08:46:37;97030.00;;;7.60
56286;BMP180;42191;47.562;9.686;2023-03-01T08:49:14;97035.00;;;7.70
56286;BMP180;42191;47.562;9.686;2023-03-01T08:51:41;97027.00;;;7.70
56286;BMP180;42191;47.562;9.686;2023-03-01T08:54:11;97027.00;;;7.70
56286;BMP180;42191;47.562;9.686;2023-03-01T08:56:37;97018.00;;;7.80
56286;BMP180;42191;47.562;9.686;2023-03-01T08:59:04;97017.00;;;7.80
56286;BMP180;42191;47.562;9.686;2023-03-01T09:01:30;97020.00;;;7.80
56286;BMP180;42191;47.562;9.686;2023-03-01T09:03:56;97020.00;;;7.90
56286;BMP180;42191;47.562;9.686;2023-03-01T09:06:22;97010.00;;;7.90
56286;BMP180;42191;47.562;9.686;2023-03-01T09:08:49;97029.00;;;8.00
56286;BMP180;42191;47.562;9.686;2023-03-01T09:11:18;97024.00;;;8.00
56286;BMP180;42191;47.562;9.686;2023-03-01T09:13:46;97020.00;;;8.10
56286;BMP180;42191;47.562;9.686;2023-03-01T09:16:14;97021.00;;;8.10
56286;BMP180;42191;47.562;9.686;2023-03-01T09:18:41;97007.00;;;8.20
56286;BMP180;42191;47.562;9.686;2023-03-01T09:21:25;97013.00;;;8.20
56286;BMP180;42191;47.562;9.686;2023-03-01T09:23:51;97008.00;;;8.20
56286;BMP180;42191;47.562;9.686;2023-03-01T09:26:22;97007.00;;;8.20
56286;BMP180;42191;47.562;9.686;2023-03-01T09:28:50;97008.00;;;8.30
56286;BMP180;42191;47.562;9.686;2023-03-01T09:31:18;97000.00;;;8.30
56286;BMP180;42191;47.562;9.686;2023-03-01T09:33:47;96986.00;;;8.30
56286;BMP180;42191;47.562;9.686;2023-03-01T09:36:18;96984.00;;;8.40
56286;BMP180;42191;47.562;9.686;2023-03-01T09:38:45;96987.00;;;8.40
56286;BMP180;42191;47.562;9.686;2023-03-01T09:44:35;96998.00;;;8.50
56286;BMP180;42191;47.562;9.686;2023-03-01T09:47:03;96996.00;;;8.60
56286;BMP180;42191;47.562;9.686;2023-03-01T09:49:35;96986.00;;;8.60
56286;BMP180;42191;47.562;9.686;2023-03-01T09:52:34;96997.00;;;8.70
56286;BMP180;42191;47.562;9.686;2023-03-01T09:55:05;96997.00;;;8.80
56286;BMP180;42191;47.562;9.686;2023-03-01T09:57:48;96997.00;;;8.80
56286;BMP180;42191;47.562;9.686;2023-03-01T10:03:02;96983.00;;;9.00
56286;BMP180;42191;47.562;9.686;2023-03-01T10:10:47;96983.00;;;9.20
56286;BMP180;42191;47.562;9.686;2023-03-01T10:13:19;96978.00;;;9.30
56286;BMP180;42191;47.562;9.686;2023-03-01T10:16:17;96976.00;;;9.30
56286;BMP180;42191;47.562;9.686;2023-03-01T10:18:51;96974.00;;;9.40
56286;BMP180;42191;47.562;9.686;2023-03-01T10:21:20;96968.00;;;9.40
56286;BMP180;42191;47.562;9.686;2023-03-01T10:23:49;96973.00;;;9.50
56286;BMP180;42191;47.562;9.686;2023-03-01T10:29:09;96967.00;;;9.60
56286;BMP180;42191;47.562;9.686;2023-03-01T10:31:48;96968.00;;;9.60
56286;BMP180;42191;47.562;9.686;2023-03-01T10:36:59;96968.00;;;9.80
56286;BMP180;42191;47.562;9.686;2023-03-01T10:39:27;96966.00;;;9.80
56286;BMP180;42191;47.562;9.686;2023-03-01T10:41:56;96953.00;;;9.80
56286;BMP180;42191;47.562;9.686;2023-03-01T10:44:56;96955.00;;;9.90
56286;BMP180;42191;47.562;9.686;2023-03-01T10:47:25;96951.00;;;9.90
56286;BMP180;42191;47.562;9.686;2023-03-01T10:50:05;96952.00;;;10.00
56286;BMP180;42191;47.562;9.686;2023-03-01T10:52:36;96945.00;;;10.10
56286;BMP180;42191;47.562;9.686;2023-03-01T10:55:33;96949.00;;;10.10
56286;BMP180;42191;47.562;9.686;2023-03-01T10:58:18;96952.00;;;10.20
56286;BMP180;42191;47.562;9.686;2023-03-01T11:00:57;96944.00;;;10.30
56286;BMP180;42191;47.562;9.686;2023-03-01T11:03:26;96944.00;;;10.40
56286;BMP180;42191;47.562;9.686;2023-03-01T11:06:03;96939.00;;;10.50
56286;BMP180;42191;47.562;9.686;2023-03-01T11:08:44;96949.00;;;10.60
56286;BMP180;42191;47.562;9.686;2023-03-01T11:11:31;96955.00;;;10.60
56286;BMP180;42191;47.562;9.686;2023-03-01T11:16:45;96934.00;;;10.70
56286;BMP180;42191;47.562;9.686;2023-03-01T11:22:24;96934.00;;;10.70
56286;BMP180;42191;47.562;9.686;2023-03-01T11:24:51;96924.00;;;10.70
56286;BMP180;42191;47.562;9.686;2023-03-01T11:27:25;96925.00;;;10.70
56286;BMP180;42191;47.562;9.686;2023-03-01T11:32:26;96927.00;;;10.70
56286;BMP180;42191;47.562;9.686;2023-03-01T11:35:20;96918.00;;;10.70
56286;BMP180;42191;47.562;9.686;2023-03-01T11:43:26;96915.00;;;10.70
56286;BMP180;42191;47.562;9.686;2023-03-01T11:54:41;96907.00;;;10.80
56286;BMP180;42191;47.562;9.686;2023-03-01T12:00:35;96891.00;;;10.90
56286;BMP180;42191;47.562;9.686;2023-03-01T12:03:23;96898.00;;;10.90
56286;BMP180;42191;47.562;9.686;2023-03-01T12:17:31;96890.00;;;11.00
56286;BMP180;42191;47.562;9.686;2023-03-01T12:23:16;96881.00;;;11.00
56286;BMP180;42191;47.562;9.686;2023-03-01T12:26:07;96872.00;;;11.00
56286;BMP180;42191;47.562;9.686;2023-03-01T12:31:53;96864.00;;;11.10
56286;BMP180;42191;47.562;9.686;2023-03-01T12:37:11;96866.00;;;11.20
56286;BMP180;42191;47.562;9.686;2023-03-01T12:39:52;96870.00;;;11.20
56286;BMP180;42191;47.562;9.686;2023-03-01T12:50:47;96854.00;;;11.40
56286;BMP180;42191;47.562;9.686;2023-03-01T12:53:24;96852.00;;;11.50
56286;BMP180;42191;47.562;9.686;2023-03-01T12:55:52;96850.00;;;11.50
56286;BMP180;42191;47.562;9.686;2023-03-01T13:04:27;96851.00;;;11.50
56286;BMP180;42191;47.562;9.686;2023-03-01T13:09:59;96842.00;;;11.50
56286;BMP180;42191;47.562;9.686;2023-03-01T13:26:05;96853.00;;;11.60
56286;BMP180;42191;47.562;9.686;2023-03-01T13:33:51;96853.00;;;11.50
56286;BMP180;42191;47.562;9.686;2023-03-01T13:39:03;96851.00;;;11.60
56286;BMP180;42191;47.562;9.686;2023-03-01T13:47:16;96864.00;;;11.70
56286;BMP180;42191;47.562;9.686;2023-03-01T13:49:59;96861.00;;;11.80
56286;BMP180;42191;47.562;9.686;2023-03-01T13:55:18;96873.00;;;11.90
56286;BMP180;42191;47.562;9.686;2023-03-01T13:58:14;96864.00;;;12.00
56286;BMP180;42191;47.562;9.686;2023-03-01T14:00:38;96861.00;;;12.10
56286;BMP180;42191;47.562;9.686;2023-03-01T14:03:17;96822.00;;;12.20
56286;BMP180;42191;47.562;9.686;2023-03-01T14:06:07;96829.00;;;12.30
56286;BMP180;42191;47.562;9.686;2023-03-01T14:08:36;96834.00;;;12.40
56286;BMP180;42191;47.562;9.686;2023-03-01T14:11:26;96840.00;;;12.50
56286;BMP180;42191;47.562;9.686;2023-03-01T14:14:18;96833.00;;;12.60
56286;BMP180;42191;47.562;9.686;2023-03-01T14:19:29;96826.00;;;12.70
56286;BMP180;42191;47.562;9.686;2023-03-01T14:24:55;96823.00;;;12.70
56286;BMP180;42191;47.562;9.686;2023-03-01T14:27:23;96826.00;;;12.70
56286;BMP180;42191;47.562;9.686;2023-03-01T14:30:02;96825.00;;;12.60
56286;BMP180;42191;47.562;9.686;2023-03-01T14:32:30;96819.00;;;12.60
56286;BMP180;42191;47.562;9.686;2023-03-01T14:34:58;96829.00;;;12.60
56286;BMP180;42191;47.562;9.686;2023-03-01T14:39:53;96833.00;;;12.50
56286;BMP180;42191;47.562;9.686;2023-03-01T14:42:22;96833.00;;;12.40
56286;BMP180;42191;47.562;9.686;2023-03-01T14:44:51;96821.00;;;12.30
56286;BMP180;42191;47.562;9.686;2023-03-01T14:47:26;96829.00;;;12.20
56286;BMP180;42191;47.562;9.686;2023-03-01T14:49:59;96825.00;;;12.10
56286;BMP180;42191;47.562;9.686;2023-03-01T14:52:34;96826.00;;;12.00
56286;BMP180;42191;47.562;9.686;2023-03-01T14:55:02;96834.00;;;11.90
56286;BMP180;42191;47.562;9.686;2023-03-01T14:57:29;96827.00;;;11.70
56286;BMP180;42191;47.562;9.686;2023-03-01T14:59:58;96821.00;;;11.60
56286;BMP180;42191;47.562;9.686;2023-03-01T15:02:27;96815.00;;;11.60
56286;BMP180;42191;47.562;9.686;2023-03-01T15:05:04;96811.00;;;11.50
56286;BMP180;42191;47.562;9.686;2023-03-01T15:07:36;96816.00;;;11.40
56286;BMP180;42191;47.562;9.686;2023-03-01T15:10:06;96810.00;;;11.30
56286;BMP180;42191;47.562;9.686;2023-03-01T15:12:35;96813.00;;;11.30
56286;BMP180;42191;47.562;9.686;2023-03-01T15:15:18;96817.00;;;11.20
56286;BMP180;42191;47.562;9.686;2023-03-01T15:17:48;96821.00;;;11.10
56286;BMP180;42191;47.562;9.686;2023-03-01T15:20:18;96825.00;;;11.10
56286;BMP180;42191;47.562;9.686;2023-03-01T15:22:47;96825.00;;;11.00
56286;BMP180;42191;47.562;9.686;2023-03-01T15:25:18;96825.00;;;10.90
56286;BMP180;42191;47.562;9.686;2023-03-01T15:27:49;96822.00;;;10.80
56286;BMP180;42191;47.562;9.686;2023-03-01T15:30:22;96813.00;;;10.80
56286;BMP180;42191;47.562;9.686;2023-03-01T15:33:15;96828.00;;;10.70
56286;BMP180;42191;47.562;9.686;2023-03-01T15:35:47;96818.00;;;10.60
56286;BMP180;42191;47.562;9.686;2023-03-01T15:38:50;96812.00;;;10.50
56286;BMP180;42191;47.562;9.686;2023-03-01T15:41:28;96819.00;;;10.40
56286;BMP180;42191;47.562;9.686;2023-03-01T15:44:00;96827.00;;;10.30
56286;BMP180;42191;47.562;9.686;2023-03-01T15:46:32;96819.00;;;10.20
56286;BMP180;42191;47.562;9.686;2023-03-01T15:49:17;96821.00;;;10.10
56286;BMP180;42191;47.562;9.686;2023-03-01T15:51:45;96822.00;;;10.10
56286;BMP180;42191;47.562;9.686;2023-03-01T15:54:23;96818.00;;;10.00
56286;BMP180;42191;47.562;9.686;2023-03-01T15:56:50;96819.00;;;10.00
56286;BMP180;42191;47.562;9.686;2023-03-01T15:59:17;96819.00;;;9.90
56286;BMP180;42191;47.562;9.686;2023-03-01T16:01:44;96821.00;;;9.90
56286;BMP180;42191;47.562;9.686;2023-03-01T16:04:12;96812.00;;;9.80
56286;BMP180;42191;47.562;9.686;2023-03-01T16:06:42;96817.00;;;9.80
56286;BMP180;42191;47.562;9.686;2023-03-01T16:09:08;96828.00;;;9.70
56286;BMP180;42191;47.562;9.686;2023-03-01T16:11:35;96825.00;;;9.70
56286;BMP180;42191;47.562;9.686;2023-03-01T16:14:02;96815.00;;;9.60
56286;BMP180;42191;47.562;9.686;2023-03-01T16:16:29;96822.00;;;9.60
56286;BMP180;42191;47.562;9.686;2023-03-01T16:18:55;96833.00;;;9.50
56286;BMP180;42191;47.562;9.686;2023-03-01T16:21:23;96832.00;;;9.50
56286;BMP180;42191;47.562;9.686;2023-03-01T16:23:50;96826.00;;;9.40
56286;BMP180;42191;47.562;9.686;2023-03-01T16:26:17;96839.00;;;9.40
56286;BMP180;42191;47.562;9.686;2023-03-01T16:28:44;96824.00;;;9.40
56286;BMP180;42191;47.562;9.686;2023-03-01T16:31:11;96835.00;;;9.30
56286;BMP180;42191;47.562;9.686;2023-03-01T16:33:40;96844.00;;;9.20
56286;BMP180;42191;47.562;9.686;2023-03-01T16:36:12;96842.00;;;9.20
56286;BMP180;42191;47.562;9.686;2023-03-01T16:38:39;96851.00;;;9.20
56286;BMP180;42191;47.562;9.686;2023-03-01T16:41:05;96845.00;;;9.10
56286;BMP180;42191;47.562;9.686;2023-03-01T16:43:36;96837.00;;;9.10
56286;BMP180;42191;47.562;9.686;2023-03-01T16:46:13;96848.00;;;9.10
56286;BMP180;42191;47.562;9.686;2023-03-01T16:48:40;96847.00;;;9.00
56286;BMP180;42191;47.562;9.686;2023-03-01T16:51:06;96838.00;;;9.00